Weather at Stevens Point Municipal Airport

Public forecast

Using degrees Fahrenheit for public forecast. Weather courtesy of forecast.io.

Current aviation weather report (METAR) for Stevens Point Municipal Airport

Retrieved 2021/06/25 03:15 UTC (6 minutes ago):

KSTE 250315Z AUTO 19007KT 10SM CLR 18/18 A2988 RMK AO2 T01800180

Closest aviation forecast (TAF) to Stevens Point Municipal Airport

Closest forecast is Central Wisconsin Airport, 15.1 nm (28.0 km) NNW. Retrieved 2021-06-25 00:22 UTC (3 hours ago):

TAF KCWA 242320Z 2500/2524 10007KT P6SM SCT030 BKN060 TEMPO 2500/2501 -TSRA OVC030CB FM250200 15003KT P6SM VCSH BKN020 FM250600 07003KT 3SM BR BKN010 FM251000 03005KT 2SM BR BKN003 FM251500 05006KT P6SM BKN011 FM251800 08005KT P6SM SCT015 BKN030 FM252100 09005KT P6SM SCT035 BKN100